createdAt,value
2022-12-29T00:14:19.205Z,14.85
2022-12-29T00:17:30.485Z,15.93
2022-12-29T00:20:58.684Z,18.00
2022-12-29T00:28:03.059Z,15.38
2022-12-29T00:31:49.442Z,15.95
2022-12-29T00:38:23.561Z,16.95
2022-12-29T00:41:52.029Z,15.78
2022-12-29T00:52:30.621Z,14.75
2022-12-29T00:55:59.815Z,14.90
2022-12-29T01:06:37.998Z,16.00
2022-12-29T01:13:34.673Z,9.33
2022-12-29T01:20:34.979Z,5.43
2022-12-29T01:27:29.424Z,4.90
2022-12-29T01:30:41.940Z,5.78
2022-12-29T01:33:54.275Z,5.48
2022-12-29T01:37:06.189Z,7.18
2022-12-29T01:40:20.387Z,5.18
2022-12-29T01:43:51.536Z,4.38
2022-12-29T01:47:05.294Z,6.78
2022-12-29T01:50:22.519Z,7.40
2022-12-29T01:53:40.306Z,7.78
2022-12-29T01:56:54.082Z,5.43
2022-12-29T02:00:38.936Z,6.85
2022-12-29T02:03:51.034Z,5.45
2022-12-29T02:07:11.540Z,6.75
2022-12-29T02:10:24.906Z,7.23
2022-12-29T02:13:37.475Z,5.45
2022-12-29T02:17:38.317Z,6.00
2022-12-29T02:21:53.310Z,4.43
2022-12-29T02:25:50.791Z,6.18
2022-12-29T02:29:46.114Z,6.60
2022-12-29T02:37:18.807Z,5.33
2022-12-29T02:40:36.546Z,5.25
2022-12-29T02:43:58.579Z,6.50
2022-12-29T02:47:32.297Z,5.20
2022-12-29T02:50:50.086Z,7.03
2022-12-29T02:54:19.541Z,4.33
2022-12-29T02:57:41.258Z,5.53
2022-12-29T03:01:04.375Z,3.33
2022-12-29T03:04:30.923Z,5.13
2022-12-29T03:07:51.985Z,7.23
2022-12-29T03:11:11.924Z,4.30
2022-12-29T03:14:45.634Z,6.15
2022-12-29T03:18:35.068Z,4.90
2022-12-29T03:26:26.511Z,5.25
2022-12-29T03:29:43.332Z,5.08
2022-12-29T03:32:59.937Z,4.45
2022-12-29T03:36:19.621Z,4.45
2022-12-29T03:39:33.767Z,7.80
2022-12-29T03:42:47.959Z,7.18
2022-12-29T03:46:00.831Z,5.35
2022-12-29T03:49:13.182Z,5.35
2022-12-29T03:52:25.258Z,5.48
2022-12-29T03:55:37.769Z,5.88
2022-12-29T03:58:49.784Z,5.68
2022-12-29T04:02:03.729Z,6.78
2022-12-29T04:05:17.143Z,5.35
2022-12-29T04:08:29.377Z,6.63
2022-12-29T04:11:41.568Z,9.83
2022-12-29T04:14:53.684Z,8.53
2022-12-29T04:18:05.827Z,6.98
2022-12-29T04:21:18.999Z,12.20
2022-12-29T04:24:31.116Z,10.15
2022-12-29T04:27:43.431Z,12.38
2022-12-29T04:31:14.350Z,14.18
2022-12-29T04:34:28.121Z,11.03
2022-12-29T04:37:40.222Z,12.63
2022-12-29T04:40:53.405Z,8.38
2022-12-29T05:18:28.786Z,6.45
2022-12-29T05:21:40.900Z,7.40
2022-12-29T05:24:53.650Z,6.55
2022-12-29T05:28:05.860Z,4.23
2022-12-29T05:31:32.537Z,7.18
2022-12-29T05:34:44.745Z,6.60
2022-12-29T05:37:56.919Z,7.75
2022-12-29T05:41:09.140Z,8.45
2022-12-29T05:44:39.397Z,7.03
2022-12-29T05:47:57.213Z,9.15
2022-12-29T05:51:14.095Z,6.60
2022-12-29T05:54:28.538Z,7.93
2022-12-29T06:01:58.989Z,5.95
2022-12-29T06:05:12.839Z,4.43
2022-12-29T06:22:17.192Z,7.85
2022-12-29T06:25:32.162Z,5.70
2022-12-29T06:28:44.467Z,5.23
2022-12-29T06:31:59.224Z,6.10
2022-12-29T06:35:14.529Z,5.28
2022-12-29T06:38:36.318Z,5.45
2022-12-29T06:41:48.549Z,8.13
2022-12-29T06:45:10.140Z,8.20
2022-12-29T06:48:22.142Z,6.05
2022-12-29T06:51:34.183Z,6.55
2022-12-29T06:54:48.836Z,8.15
2022-12-29T06:58:03.366Z,7.83
2022-12-29T07:01:15.464Z,7.58
2022-12-29T07:04:28.354Z,7.58
2022-12-29T07:07:40.282Z,9.00
2022-12-29T07:10:52.369Z,7.35
2022-12-29T07:14:04.287Z,7.60
2022-12-29T07:17:16.346Z,6.08
2022-12-29T07:20:29.138Z,7.90
2022-12-29T07:23:41.377Z,9.08
2022-12-29T07:26:53.264Z,7.68
2022-12-29T07:30:05.276Z,9.45
2022-12-29T07:33:17.107Z,9.75
2022-12-29T07:36:34.155Z,11.83
2022-12-29T07:39:44.177Z,17.93
2022-12-29T07:42:55.952Z,26.20
2022-12-29T07:46:14.592Z,20.93
2022-12-29T07:49:24.039Z,31.55
2022-12-29T07:52:36.153Z,24.65
2022-12-29T07:55:48.799Z,17.80
2022-12-29T07:59:00.814Z,23.13
2022-12-29T08:02:14.016Z,20.10
2022-12-29T08:05:27.445Z,27.55
2022-12-29T08:08:39.317Z,44.63
2022-12-29T08:11:51.565Z,31.45
2022-12-29T08:15:03.391Z,42.58
2022-12-29T08:18:15.651Z,44.33
2022-12-29T08:21:27.501Z,41.18
2022-12-29T08:24:39.447Z,29.18
2022-12-29T08:27:51.457Z,36.08
2022-12-29T08:31:06.274Z,40.28
2022-12-29T08:34:18.512Z,30.23
2022-12-29T08:37:31.428Z,37.93
2022-12-29T08:40:44.388Z,31.40
2022-12-29T08:43:56.863Z,17.80
2022-12-29T08:47:09.208Z,16.30
2022-12-29T08:50:21.298Z,11.45
2022-12-29T08:53:33.123Z,19.23
2022-12-29T08:56:46.127Z,15.93
2022-12-29T08:59:59.500Z,13.80
2022-12-29T09:03:12.003Z,21.20
2022-12-29T09:06:25.713Z,22.50
2022-12-29T09:09:38.030Z,24.40
2022-12-29T09:12:49.901Z,13.85
2022-12-29T09:16:08.755Z,15.10
2022-12-29T09:19:20.679Z,15.60
2022-12-29T09:22:32.678Z,14.95
2022-12-29T09:25:45.710Z,17.68
2022-12-29T09:28:57.930Z,16.08
2022-12-29T09:32:15.452Z,26.40
2022-12-29T09:35:25.383Z,12.40
2022-12-29T09:38:37.492Z,13.75
2022-12-29T09:41:54.496Z,12.28
2022-12-29T09:48:25.525Z,12.25
2022-12-29T09:51:38.306Z,8.95
2022-12-29T09:55:02.897Z,9.40
2022-12-29T09:58:19.151Z,9.63
2022-12-29T10:01:39.169Z,12.10
2022-12-29T10:04:52.124Z,12.80
2022-12-29T10:08:21.737Z,10.13
2022-12-29T10:11:44.500Z,12.08
2022-12-29T10:15:07.558Z,10.35
2022-12-29T10:19:00.728Z,9.25
2022-12-29T10:22:22.992Z,12.23
2022-12-29T10:25:40.382Z,10.80
2022-12-29T10:28:57.488Z,9.38
2022-12-29T10:35:27.129Z,9.28
2022-12-29T10:38:45.500Z,18.93
2022-12-29T10:42:02.961Z,10.73
2022-12-29T10:45:21.726Z,13.48
2022-12-29T10:48:39.126Z,9.45
2022-12-29T10:51:55.564Z,8.45
2022-12-29T10:55:13.462Z,13.60
2022-12-29T10:58:27.007Z,10.08
2022-12-29T11:01:48.083Z,14.90
2022-12-29T11:05:08.467Z,19.20
2022-12-29T11:08:25.597Z,23.83
2022-12-29T11:11:43.460Z,11.43
2022-12-29T11:15:23.648Z,17.55
2022-12-29T11:18:43.569Z,9.55
2022-12-29T11:21:56.544Z,10.80
2022-12-29T11:25:17.656Z,8.45
2022-12-29T11:28:34.411Z,13.55
2022-12-29T11:35:02.764Z,10.48
2022-12-29T11:38:25.688Z,8.25
2022-12-29T11:41:39.669Z,9.28
2022-12-29T11:44:54.691Z,18.98
2022-12-29T11:48:13.302Z,10.95
2022-12-29T11:51:34.974Z,9.45
2022-12-29T11:54:47.344Z,10.78
2022-12-29T11:58:02.702Z,11.70
2022-12-29T12:01:21.130Z,9.23
2022-12-29T12:04:38.167Z,7.40
2022-12-29T12:07:53.288Z,10.43
2022-12-29T12:11:12.113Z,8.58
2022-12-29T12:14:29.465Z,7.03
2022-12-29T12:18:00.477Z,9.53
2022-12-29T12:21:21.675Z,5.98
2022-12-29T12:24:49.722Z,7.58
2022-12-29T12:28:07.994Z,6.98
2022-12-29T12:31:30.621Z,8.30
2022-12-29T12:34:48.005Z,6.73
2022-12-29T12:38:12.295Z,7.05
2022-12-29T12:41:33.522Z,7.05
2022-12-29T12:44:54.106Z,8.40
2022-12-29T12:48:17.641Z,12.48
2022-12-29T12:51:36.097Z,7.40
2022-12-29T12:55:10.088Z,7.60
2022-12-29T12:58:30.620Z,11.68
2022-12-29T13:01:51.262Z,7.70
2022-12-29T13:05:26.994Z,10.15
2022-12-29T13:09:07.214Z,7.93
2022-12-29T13:12:30.647Z,9.38
2022-12-29T13:15:52.039Z,8.80
2022-12-29T13:19:11.385Z,8.85
2022-12-29T13:22:29.453Z,8.00
2022-12-29T13:25:47.492Z,7.25
2022-12-29T13:29:04.977Z,9.28
2022-12-29T13:32:30.884Z,10.00
2022-12-29T13:35:59.832Z,11.20
2022-12-29T13:39:21.066Z,9.25
2022-12-29T13:42:33.501Z,8.85
2022-12-29T13:45:47.681Z,9.38
2022-12-29T13:49:04.010Z,7.00
2022-12-29T13:52:21.875Z,8.37
2022-12-29T13:55:39.787Z,8.05
2022-12-29T13:58:58.462Z,9.83
2022-12-29T14:02:18.970Z,7.70
2022-12-29T14:05:39.276Z,8.15
2022-12-29T14:08:53.110Z,7.63
2022-12-29T14:12:05.259Z,8.20
2022-12-29T14:15:32.777Z,6.50
2022-12-29T14:18:50.798Z,9.55
2022-12-29T14:22:07.333Z,7.30
2022-12-29T14:26:02.094Z,8.28
2022-12-29T14:29:50.561Z,11.15
2022-12-29T14:33:19.090Z,12.38
2022-12-29T14:36:40.164Z,11.48
2022-12-29T14:39:53.039Z,11.80
2022-12-29T14:43:06.050Z,11.65
2022-12-29T14:46:18.266Z,13.53
2022-12-29T14:49:33.731Z,11.20
2022-12-29T14:53:00.112Z,11.53
2022-12-29T14:56:08.311Z,7.63
2022-12-29T14:59:22.127Z,18.68
2022-12-29T15:02:39.989Z,20.30
2022-12-29T15:05:56.330Z,19.10
2022-12-29T15:09:20.007Z,19.33
2022-12-29T15:12:38.545Z,17.18
2022-12-29T15:15:50.650Z,16.80
2022-12-29T15:19:02.921Z,18.70
2022-12-29T15:22:16.165Z,13.88
2022-12-29T15:25:29.109Z,13.23
2022-12-29T15:28:49.716Z,13.95
2022-12-29T15:32:02.401Z,19.98
2022-12-29T15:35:30.671Z,14.28
2022-12-29T15:38:42.743Z,19.80
2022-12-29T15:42:06.240Z,18.00
2022-12-29T15:45:20.214Z,17.40
2022-12-29T15:52:18.643Z,18.03
2022-12-29T15:55:37.904Z,18.23
2022-12-29T15:58:52.949Z,21.23
2022-12-29T16:02:12.107Z,17.40
2022-12-29T16:09:12.879Z,22.65
2022-12-29T16:12:28.459Z,21.75
2022-12-29T16:15:40.711Z,22.95
2022-12-29T16:18:57.719Z,22.75
2022-12-29T16:22:12.157Z,21.80
2022-12-29T16:25:27.858Z,17.80
2022-12-29T16:28:46.942Z,21.38
2022-12-29T16:32:05.014Z,19.83
2022-12-29T16:35:25.057Z,23.85
2022-12-29T16:38:42.997Z,22.95
2022-12-29T16:41:56.023Z,24.03
2022-12-29T16:45:29.424Z,21.20
2022-12-29T16:48:46.032Z,27.93
2022-12-29T16:51:59.454Z,20.85
2022-12-29T16:55:20.186Z,19.78
2022-12-29T16:58:36.243Z,24.15
2022-12-29T17:01:49.046Z,19.60
2022-12-29T17:05:01.510Z,18.45
2022-12-29T17:08:27.937Z,25.68
2022-12-29T17:12:06.946Z,24.15
2022-12-29T17:15:19.284Z,21.58
2022-12-29T17:21:41.398Z,22.35
2022-12-29T17:24:55.871Z,36.83
2022-12-29T17:28:11.456Z,23.23
2022-12-29T17:31:23.674Z,21.83
2022-12-29T17:38:25.842Z,27.70
2022-12-29T17:41:39.072Z,27.23
2022-12-29T17:48:32.816Z,29.40
2022-12-29T17:51:45.173Z,29.98
2022-12-29T17:55:01.055Z,32.35
2022-12-29T17:58:27.692Z,26.98
2022-12-29T18:01:45.141Z,23.53
2022-12-29T18:04:54.080Z,28.85
2022-12-29T18:08:06.751Z,28.73
2022-12-29T18:11:29.208Z,21.23
2022-12-29T18:14:41.145Z,19.93
2022-12-29T18:17:53.630Z,18.83
2022-12-29T18:21:07.746Z,21.68
2022-12-29T18:24:21.403Z,18.35
2022-12-29T18:27:46.200Z,18.15
2022-12-29T18:30:59.008Z,15.03
2022-12-29T18:34:19.364Z,15.83
2022-12-29T18:37:31.359Z,18.75
2022-12-29T18:40:45.651Z,15.83
2022-12-29T18:43:58.314Z,16.48
2022-12-29T18:47:11.053Z,19.48
2022-12-29T18:50:24.086Z,18.15
2022-12-29T18:53:38.090Z,17.23
2022-12-29T18:56:50.099Z,14.85
2022-12-29T19:00:11.128Z,18.28
2022-12-29T19:11:26.061Z,19.23
2022-12-29T19:18:44.228Z,20.78
2022-12-29T19:47:10.367Z,30.63
2022-12-29T19:54:41.831Z,23.78
2022-12-29T19:57:54.995Z,27.65
2022-12-29T20:01:42.990Z,24.88
2022-12-29T20:13:34.842Z,29.18
2022-12-29T20:17:09.496Z,71.73
2022-12-29T20:20:01.114Z,24.43
2022-12-29T20:23:13.389Z,23.53
2022-12-29T20:26:29.376Z,23.35
2022-12-29T20:29:44.275Z,15.83
2022-12-29T20:33:08.528Z,16.90
2022-12-29T20:36:39.070Z,17.38
2022-12-29T20:39:51.472Z,17.98
2022-12-29T20:43:03.785Z,23.80
2022-12-29T20:56:53.383Z,18.18
2022-12-29T21:00:06.621Z,17.38
2022-12-29T21:03:18.859Z,71.45
2022-12-29T21:06:31.134Z,20.10
2022-12-29T21:09:43.249Z,18.88
2022-12-29T21:12:55.534Z,18.63
2022-12-29T21:16:11.265Z,16.68
2022-12-29T21:23:05.431Z,21.20
2022-12-29T21:48:08.175Z,19.10
2022-12-29T22:04:25.278Z,20.95
2022-12-29T22:07:52.220Z,19.18
2022-12-29T22:25:53.177Z,14.70
2022-12-29T22:32:09.216Z,18.48
2022-12-29T22:35:21.506Z,15.53
2022-12-29T22:51:21.513Z,20.15
2022-12-29T22:54:33.464Z,12.23
2022-12-29T22:57:45.621Z,13.18
2022-12-29T23:00:57.773Z,13.00
2022-12-29T23:04:58.771Z,14.18
2022-12-29T23:07:24.031Z,11.55
2022-12-29T23:10:36.341Z,11.05
2022-12-29T23:13:49.121Z,13.58
2022-12-29T23:17:01.014Z,13.93
2022-12-29T23:20:15.946Z,14.88
2022-12-29T23:23:46.219Z,13.78
2022-12-29T23:26:54.675Z,13.98
2022-12-29T23:30:06.693Z,14.83
2022-12-29T23:33:19.309Z,13.38
2022-12-29T23:36:33.042Z,13.70
2022-12-29T23:43:37.516Z,13.88
2022-12-29T23:46:49.614Z,13.10
2022-12-29T23:50:01.690Z,15.50
2022-12-29T23:53:14.170Z,14.05
2022-12-29T23:56:28.068Z,11.88
2022-12-29T23:59:40.128Z,13.05
